createdAt,value
2023-03-29T00:01:00.702Z,100877.72
2023-03-29T00:03:30.647Z,100874.06
2023-03-29T00:06:03.939Z,100870.06
2023-03-29T00:08:34.036Z,100879.12
2023-03-29T00:11:02.401Z,100880.50
2023-03-29T00:13:30.367Z,100884.69
2023-03-29T00:15:58.006Z,100870.69
2023-03-29T00:18:30.299Z,100880.38
2023-03-29T00:21:00.160Z,100879.69
2023-03-29T00:23:28.596Z,100881.69
2023-03-29T00:25:59.167Z,100876.19
2023-03-29T00:28:27.182Z,100876.50
2023-03-29T00:30:54.855Z,100880.50
2023-03-29T00:33:22.898Z,100878.63
2023-03-29T00:35:50.566Z,100886.78
2023-03-29T00:38:20.635Z,100887.78
2023-03-29T00:40:48.500Z,100881.44
2023-03-29T00:43:16.993Z,100889.28
2023-03-29T00:45:46.805Z,100881.28
2023-03-29T00:48:18.441Z,100886.09
2023-03-29T00:50:49.071Z,100889.97
2023-03-29T00:53:33.469Z,100883.44
2023-03-29T00:56:06.841Z,100877.94
2023-03-29T00:58:39.351Z,100870.91
2023-03-29T01:01:17.463Z,100880.06
2023-03-29T01:03:54.588Z,100872.69
2023-03-29T01:06:29.125Z,100876.19
2023-03-29T01:09:01.281Z,100870.66
2023-03-29T01:11:38.310Z,100872.13
2023-03-29T01:14:11.697Z,100872.94
2023-03-29T01:16:39.503Z,100867.69
2023-03-29T01:19:15.458Z,100860.47
2023-03-29T01:21:51.863Z,100862.31
2023-03-29T01:24:58.691Z,100858.81
2023-03-29T01:27:54.391Z,100857.81
2023-03-29T01:30:38.524Z,100852.31
2023-03-29T01:33:32.215Z,100852.50
2023-03-29T01:36:19.310Z,100855.09
2023-03-29T01:39:05.079Z,100852.38
2023-03-29T01:41:48.144Z,100853.16
2023-03-29T01:44:28.262Z,100852.94
2023-03-29T01:47:07.317Z,100853.41
2023-03-29T01:49:42.234Z,100849.91
2023-03-29T01:52:23.869Z,100850.06
2023-03-29T01:55:00.680Z,100846.25
2023-03-29T01:57:28.736Z,100849.59
2023-03-29T01:59:58.860Z,100853.78
2023-03-29T02:02:30.455Z,100848.78
2023-03-29T02:04:59.367Z,100849.59
2023-03-29T02:07:32.324Z,100855.94
2023-03-29T02:10:00.605Z,100852.59
2023-03-29T02:12:28.307Z,100851.06
2023-03-29T02:14:58.649Z,100855.00
2023-03-29T02:17:28.610Z,100851.66
2023-03-29T02:20:02.389Z,100858.44
2023-03-29T02:22:41.262Z,100858.06
2023-03-29T02:25:09.757Z,100854.72
2023-03-29T02:27:38.823Z,100855.50
2023-03-29T02:30:10.037Z,100845.53
2023-03-29T02:32:50.206Z,100858.84
2023-03-29T02:35:54.567Z,100857.09
2023-03-29T02:38:27.814Z,100858.97
2023-03-29T02:40:57.380Z,100862.41
2023-03-29T02:43:28.564Z,100863.38
2023-03-29T02:45:57.057Z,100859.09
2023-03-29T02:48:28.664Z,100862.88
2023-03-29T02:51:01.782Z,100863.50
2023-03-29T02:53:43.109Z,100871.22
2023-03-29T02:56:12.069Z,100871.97
2023-03-29T02:58:39.716Z,100870.56
2023-03-29T03:01:10.405Z,100874.97
2023-03-29T03:03:40.309Z,100877.63
2023-03-29T03:06:08.487Z,100869.78
2023-03-29T03:08:36.279Z,100877.37
2023-03-29T03:11:04.140Z,100888.69
2023-03-29T03:13:32.011Z,100878.50
2023-03-29T03:16:03.578Z,100881.47
2023-03-29T03:18:31.881Z,100882.00
2023-03-29T03:21:01.855Z,100882.44
2023-03-29T03:23:30.418Z,100885.94
2023-03-29T03:26:03.101Z,100886.94
2023-03-29T03:28:32.295Z,100884.41
2023-03-29T03:31:02.255Z,100890.97
2023-03-29T03:33:32.938Z,100898.41
2023-03-29T03:36:04.875Z,100885.56
2023-03-29T03:38:33.762Z,100892.97
2023-03-29T03:41:03.723Z,100893.97
2023-03-29T03:43:31.584Z,100887.81
2023-03-29T03:45:59.647Z,100885.84
2023-03-29T03:48:27.350Z,100883.19
2023-03-29T03:50:58.237Z,100894.81
2023-03-29T03:53:28.438Z,100891.47
2023-03-29T03:55:57.498Z,100897.22
2023-03-29T03:58:26.273Z,100900.69
2023-03-29T04:00:54.989Z,100897.47
2023-03-29T04:03:25.208Z,100902.38
2023-03-29T04:05:52.852Z,100897.31
2023-03-29T04:08:23.418Z,100897.56
2023-03-29T04:10:55.268Z,100905.09
2023-03-29T04:13:23.915Z,100906.62
2023-03-29T04:15:54.349Z,100899.38
2023-03-29T04:18:23.023Z,100895.16
2023-03-29T04:20:51.555Z,100896.38
2023-03-29T04:23:19.498Z,100892.44
2023-03-29T04:25:47.422Z,100890.03
2023-03-29T04:28:17.430Z,100882.88
2023-03-29T04:30:47.340Z,100890.44
2023-03-29T04:33:15.283Z,100884.44
2023-03-29T04:35:45.313Z,100884.69
2023-03-29T04:38:13.196Z,100881.34
2023-03-29T04:40:40.908Z,100879.69
2023-03-29T04:43:10.666Z,100883.47
2023-03-29T04:45:38.289Z,100889.34
2023-03-29T04:48:06.043Z,100883.31
2023-03-29T04:50:34.816Z,100888.66
2023-03-29T04:53:05.117Z,100886.94
2023-03-29T04:55:32.798Z,100890.91
2023-03-29T04:58:02.903Z,100892.25
2023-03-29T05:00:33.020Z,100899.94
2023-03-29T05:03:00.783Z,100899.91
2023-03-29T05:05:28.486Z,100896.56
2023-03-29T05:07:56.090Z,100900.00
2023-03-29T05:10:24.361Z,100904.34
2023-03-29T05:12:54.805Z,100900.59
2023-03-29T05:15:24.650Z,100906.22
2023-03-29T05:17:52.334Z,100905.78
2023-03-29T05:20:20.078Z,100900.19
2023-03-29T05:22:48.719Z,100906.09
2023-03-29T05:25:18.839Z,100903.81
2023-03-29T05:27:46.839Z,100895.00
2023-03-29T05:30:15.921Z,100906.75
2023-03-29T05:32:43.982Z,100910.63
2023-03-29T05:35:11.892Z,100904.87
2023-03-29T05:37:39.591Z,100909.62
2023-03-29T05:40:10.419Z,100906.31
2023-03-29T05:42:38.893Z,100907.03
2023-03-29T05:45:12.028Z,100912.44
2023-03-29T05:47:39.729Z,100913.44
2023-03-29T05:50:09.702Z,100919.78
2023-03-29T05:52:41.189Z,100921.13
2023-03-29T05:55:12.254Z,100909.09
2023-03-29T05:57:42.199Z,100915.44
2023-03-29T06:00:20.124Z,100914.75
2023-03-29T06:02:48.318Z,100917.78
2023-03-29T06:05:16.145Z,100912.44
2023-03-29T06:07:43.834Z,100918.28
2023-03-29T06:10:12.985Z,100913.44
2023-03-29T06:12:43.074Z,100919.75
2023-03-29T06:15:13.336Z,100926.09
2023-03-29T06:17:41.444Z,100924.78
2023-03-29T06:20:11.879Z,100920.09
2023-03-29T06:22:40.177Z,100924.78
2023-03-29T06:25:10.985Z,100928.13
2023-03-29T06:27:38.853Z,100936.31
2023-03-29T06:30:12.212Z,100933.44
2023-03-29T06:32:42.535Z,100935.94
2023-03-29T06:35:12.964Z,100937.59
2023-03-29T06:37:49.330Z,100943.59
2023-03-29T06:40:19.222Z,100931.22
2023-03-29T06:42:48.745Z,100930.56
2023-03-29T06:45:16.929Z,100927.22
2023-03-29T06:47:47.082Z,100935.13
2023-03-29T06:50:17.382Z,100927.88
2023-03-29T06:52:47.078Z,100937.06
2023-03-29T06:55:15.919Z,100934.19
2023-03-29T06:57:43.877Z,100937.91
2023-03-29T07:00:20.057Z,100929.06
2023-03-29T07:02:47.703Z,100937.78
2023-03-29T07:05:16.210Z,100937.69
2023-03-29T07:08:02.626Z,100939.22
2023-03-29T07:10:33.572Z,100948.09
2023-03-29T07:13:05.868Z,100943.19
2023-03-29T07:15:37.188Z,100957.16
2023-03-29T07:18:07.366Z,100958.66
2023-03-29T07:20:39.080Z,100966.25
2023-03-29T07:23:08.204Z,100963.22
2023-03-29T07:25:36.402Z,100962.97
2023-03-29T07:28:04.852Z,100965.25
2023-03-29T07:30:37.209Z,100969.97
2023-03-29T07:33:05.029Z,100974.03
2023-03-29T07:35:32.941Z,100963.22
2023-03-29T07:38:00.877Z,100972.41
2023-03-29T07:40:31.310Z,100972.47
2023-03-29T07:43:00.439Z,100970.41
2023-03-29T07:45:29.830Z,100978.28
2023-03-29T07:47:59.970Z,100975.00
2023-03-29T07:50:28.699Z,100969.56
2023-03-29T07:52:56.920Z,100968.50
2023-03-29T07:55:24.705Z,100969.81
2023-03-29T07:57:52.792Z,100975.78
2023-03-29T08:00:21.005Z,100981.81
2023-03-29T08:02:52.315Z,100977.81
2023-03-29T08:05:37.974Z,100983.25
2023-03-29T08:08:09.810Z,100972.03
2023-03-29T08:10:40.522Z,100982.66
2023-03-29T08:13:13.926Z,100964.12
2023-03-29T08:15:46.219Z,100967.09
2023-03-29T08:18:14.102Z,100966.22
2023-03-29T08:20:42.615Z,100972.87
2023-03-29T08:23:12.823Z,100967.28
2023-03-29T08:25:40.674Z,100969.94
2023-03-29T08:28:08.685Z,100964.94
2023-03-29T08:30:36.375Z,100965.78
2023-03-29T08:33:04.098Z,100966.97
2023-03-29T08:35:32.371Z,100976.31
2023-03-29T08:38:05.404Z,100962.31
2023-03-29T08:40:38.694Z,100971.72
2023-03-29T08:43:12.495Z,100969.16
2023-03-29T08:45:49.734Z,100971.38
2023-03-29T08:48:42.284Z,100969.78
2023-03-29T08:51:23.429Z,100967.44
2023-03-29T08:53:55.142Z,100966.19
2023-03-29T08:56:27.615Z,100961.59
2023-03-29T08:58:58.317Z,100964.44
2023-03-29T09:01:28.960Z,100953.81
2023-03-29T09:04:13.984Z,100951.22
2023-03-29T09:06:43.163Z,100934.00
2023-03-29T09:09:21.050Z,100940.75
2023-03-29T09:12:07.339Z,100935.72
2023-03-29T09:15:06.782Z,100931.59
2023-03-29T09:17:53.262Z,100920.38
2023-03-29T09:20:31.413Z,100918.22
2023-03-29T09:23:28.447Z,100922.25
2023-03-29T09:26:02.175Z,100922.44
2023-03-29T09:28:42.771Z,100915.25
2023-03-29T09:31:24.010Z,100910.59
2023-03-29T09:34:20.932Z,100905.66
2023-03-29T09:36:55.470Z,100898.63
2023-03-29T09:39:24.032Z,100902.03
2023-03-29T09:41:58.240Z,100910.53
2023-03-29T09:44:32.103Z,100899.22
2023-03-29T09:47:08.412Z,100901.69
2023-03-29T09:49:41.512Z,100894.81
2023-03-29T09:52:14.219Z,100898.06
2023-03-29T09:54:42.128Z,100893.97
2023-03-29T09:57:15.124Z,100887.97
2023-03-29T09:59:43.067Z,100884.19
2023-03-29T10:02:14.121Z,100873.12
2023-03-29T10:04:43.263Z,100872.75
2023-03-29T10:07:19.153Z,100876.69
2023-03-29T10:09:47.871Z,100873.88
2023-03-29T10:12:17.560Z,100869.84
2023-03-29T10:14:53.872Z,100869.47
2023-03-29T10:17:28.051Z,100863.44
2023-03-29T10:20:04.223Z,100860.75
2023-03-29T10:22:38.571Z,100856.88
2023-03-29T10:25:14.879Z,100861.53
2023-03-29T10:27:44.696Z,100850.97
2023-03-29T10:30:19.925Z,100856.56
2023-03-29T10:32:48.172Z,100860.75
2023-03-29T10:35:16.395Z,100844.81
2023-03-29T10:37:46.156Z,100848.09
2023-03-29T10:40:35.156Z,100839.38
2023-03-29T10:43:14.534Z,100845.84
2023-03-29T10:45:42.597Z,100849.47
2023-03-29T10:48:15.756Z,100843.47
2023-03-29T10:50:44.095Z,100841.66
2023-03-29T10:53:17.951Z,100843.31
2023-03-29T10:55:59.534Z,100833.13
2023-03-29T10:58:40.181Z,100836.41
2023-03-29T11:01:19.216Z,100830.81
2023-03-29T11:04:16.675Z,100835.12
2023-03-29T11:06:59.757Z,100827.47
2023-03-29T11:09:59.463Z,100838.97
2023-03-29T11:13:02.835Z,100818.69
2023-03-29T11:16:01.816Z,100827.00
2023-03-29T11:18:48.292Z,100819.44
2023-03-29T11:21:34.347Z,100824.53
2023-03-29T11:24:27.385Z,100816.50
2023-03-29T11:27:28.450Z,100823.31
2023-03-29T11:30:02.344Z,100818.03
2023-03-29T11:32:35.784Z,100816.25
2023-03-29T11:35:36.380Z,100821.28
2023-03-29T11:38:34.474Z,100805.31
2023-03-29T11:41:10.912Z,100806.91
2023-03-29T11:43:55.133Z,100795.41
2023-03-29T11:47:04.990Z,100790.97
2023-03-29T11:49:39.205Z,100787.50
2023-03-29T11:52:12.701Z,100783.59
2023-03-29T11:54:46.126Z,100790.44
2023-03-29T11:57:40.212Z,100783.00
2023-03-29T12:00:26.157Z,100776.97
2023-03-29T12:02:58.060Z,100772.87
2023-03-29T12:05:44.432Z,100778.22
2023-03-29T12:08:19.975Z,100776.50
2023-03-29T12:10:54.220Z,100770.13
2023-03-29T12:13:35.995Z,100761.44
2023-03-29T12:16:38.013Z,100753.69
2023-03-29T12:19:16.445Z,100753.81
2023-03-29T12:21:48.335Z,100742.25
2023-03-29T12:24:18.205Z,100745.91
2023-03-29T12:27:17.138Z,100741.31
2023-03-29T12:30:17.238Z,100741.63
2023-03-29T12:33:10.596Z,100733.06
2023-03-29T12:36:06.034Z,100740.56
2023-03-29T12:38:34.232Z,100735.56
2023-03-29T12:41:06.172Z,100732.06
2023-03-29T12:43:37.981Z,100725.91
2023-03-29T12:46:11.447Z,100719.66
2023-03-29T12:48:44.454Z,100727.44
2023-03-29T12:51:16.263Z,100720.00
2023-03-29T12:53:48.280Z,100727.47
2023-03-29T12:56:19.016Z,100731.84
2023-03-29T12:58:48.302Z,100735.03
2023-03-29T13:01:34.291Z,100729.31
2023-03-29T13:04:03.907Z,100725.56
2023-03-29T13:06:53.641Z,100723.72
2023-03-29T13:09:22.038Z,100722.41
2023-03-29T13:11:58.539Z,100709.59
2023-03-29T13:14:32.855Z,100704.25
2023-03-29T13:17:24.536Z,100712.34
2023-03-29T13:20:17.252Z,100695.34
2023-03-29T13:22:44.811Z,100708.75
2023-03-29T13:25:15.508Z,100698.66
2023-03-29T13:27:57.474Z,100699.91
2023-03-29T13:30:49.498Z,100692.91
2023-03-29T13:33:38.227Z,100694.84
2023-03-29T13:36:11.597Z,100694.66
2023-03-29T13:38:50.946Z,100689.13
2023-03-29T13:41:40.341Z,100681.13
2023-03-29T13:44:30.223Z,100679.94
2023-03-29T13:47:27.215Z,100680.06
2023-03-29T13:49:59.209Z,100674.28
2023-03-29T13:52:34.308Z,100672.84
2023-03-29T13:55:08.665Z,100672.97
2023-03-29T13:57:41.873Z,100666.00
2023-03-29T14:00:21.670Z,100672.59
2023-03-29T14:03:13.290Z,100668.50
2023-03-29T14:05:45.262Z,100660.44
2023-03-29T14:08:27.259Z,100666.59
2023-03-29T14:10:55.441Z,100666.69
2023-03-29T14:13:27.123Z,100664.13
2023-03-29T14:16:00.119Z,100669.09
2023-03-29T14:18:30.497Z,100664.00
2023-03-29T14:20:58.207Z,100652.69
2023-03-29T14:23:28.299Z,100654.16
2023-03-29T14:25:57.260Z,100655.44
2023-03-29T14:28:26.561Z,100646.72
2023-03-29T14:30:54.818Z,100648.81
2023-03-29T14:33:34.971Z,100646.63
2023-03-29T14:36:04.996Z,100651.16
2023-03-29T14:38:33.565Z,100650.25
2023-03-29T14:41:03.118Z,100649.22
2023-03-29T14:43:32.323Z,100649.63
2023-03-29T14:46:04.306Z,100643.50
2023-03-29T14:48:33.378Z,100647.13
2023-03-29T14:51:01.813Z,100642.25
2023-03-29T14:53:34.484Z,100635.44
2023-03-29T14:56:06.787Z,100638.34
2023-03-29T14:58:36.604Z,100639.56
2023-03-29T15:01:27.958Z,100640.19
2023-03-29T15:04:03.554Z,100639.84
2023-03-29T15:06:32.212Z,100629.56
2023-03-29T15:09:05.333Z,100629.19
2023-03-29T15:11:39.778Z,100625.91
2023-03-29T15:14:17.149Z,100628.62
2023-03-29T15:16:47.497Z,100624.16
2023-03-29T15:19:24.278Z,100630.00
2023-03-29T15:21:55.054Z,100622.78
2023-03-29T15:24:35.616Z,100615.81
2023-03-29T15:27:18.160Z,100615.06
2023-03-29T15:29:48.049Z,100619.75
2023-03-29T15:32:24.145Z,100617.66
2023-03-29T15:35:09.510Z,100616.25
2023-03-29T15:37:37.873Z,100614.75
2023-03-29T15:40:09.885Z,100612.56
2023-03-29T15:42:39.758Z,100607.16
2023-03-29T15:45:15.455Z,100609.03
2023-03-29T15:47:46.618Z,100602.31
2023-03-29T15:50:15.524Z,100595.84
2023-03-29T15:52:45.655Z,100595.50
2023-03-29T15:55:13.262Z,100592.75
2023-03-29T15:57:43.778Z,100601.25
2023-03-29T16:00:14.379Z,100596.00
2023-03-29T16:02:42.562Z,100581.81
2023-03-29T16:05:13.106Z,100591.25
2023-03-29T16:07:40.809Z,100583.19
2023-03-29T16:10:09.013Z,100587.50
2023-03-29T16:12:38.515Z,100582.53
2023-03-29T16:15:19.462Z,100576.91
2023-03-29T16:17:47.608Z,100588.19
2023-03-29T16:20:20.104Z,100579.22
2023-03-29T16:22:48.940Z,100584.88
2023-03-29T16:25:19.165Z,100584.50
2023-03-29T16:27:47.090Z,100576.84
2023-03-29T16:30:15.054Z,100580.59
2023-03-29T16:32:43.130Z,100571.25
2023-03-29T16:35:21.791Z,100568.53
2023-03-29T16:37:49.514Z,100562.41
2023-03-29T16:40:17.334Z,100567.22
2023-03-29T16:42:45.258Z,100567.06
2023-03-29T16:45:18.424Z,100566.69
2023-03-29T16:47:47.588Z,100563.16
2023-03-29T16:50:19.015Z,100568.41
2023-03-29T16:52:48.494Z,100563.44
2023-03-29T16:55:19.048Z,100575.31
2023-03-29T16:57:48.548Z,100572.25
2023-03-29T17:00:19.894Z,100571.88
2023-03-29T17:02:50.990Z,100573.97
2023-03-29T17:05:19.828Z,100573.59
2023-03-29T17:07:47.518Z,100574.88
2023-03-29T17:10:15.555Z,100571.78
2023-03-29T17:12:43.226Z,100568.66
2023-03-29T17:15:13.056Z,100560.75
2023-03-29T17:17:41.134Z,100565.78
2023-03-29T17:20:11.989Z,100560.38
2023-03-29T17:22:40.756Z,100571.66
2023-03-29T17:25:09.758Z,100568.34
2023-03-29T17:27:38.497Z,100557.97
2023-03-29T17:30:07.722Z,100576.31
2023-03-29T17:32:37.591Z,100580.50
2023-03-29T17:35:05.767Z,100576.37
2023-03-29T17:37:33.383Z,100577.59
2023-03-29T17:40:01.293Z,100578.88
2023-03-29T17:42:30.357Z,100583.47
2023-03-29T17:44:58.054Z,100588.50
2023-03-29T17:47:25.836Z,100580.59
2023-03-29T17:49:53.502Z,100586.47
2023-03-29T17:52:21.138Z,100590.22
2023-03-29T17:54:51.111Z,100592.53
2023-03-29T17:57:18.820Z,100603.56
2023-03-29T17:59:48.670Z,100594.47
2023-03-29T18:02:25.770Z,100593.63
2023-03-29T18:04:53.481Z,100588.63
2023-03-29T18:07:21.076Z,100597.81
2023-03-29T18:09:48.732Z,100599.28
2023-03-29T18:12:16.704Z,100611.31
2023-03-29T18:14:44.613Z,100609.44
2023-03-29T18:17:12.252Z,100607.41
2023-03-29T18:19:42.383Z,100609.28
2023-03-29T18:22:10.048Z,100622.41
2023-03-29T18:24:37.666Z,100622.84
2023-03-29T18:27:05.567Z,100624.50
2023-03-29T18:29:33.262Z,100626.81
2023-03-29T18:32:03.127Z,100618.31
2023-03-29T18:34:54.021Z,100622.88
2023-03-29T18:37:28.832Z,100619.78
2023-03-29T18:40:14.776Z,100626.66
2023-03-29T18:45:39.541Z,100633.31
2023-03-29T18:48:08.085Z,100625.25
2023-03-29T18:50:37.485Z,100623.00
2023-03-29T18:53:05.585Z,100623.59
2023-03-29T18:55:35.698Z,100623.00
2023-03-29T18:58:03.527Z,100620.72
2023-03-29T19:00:32.153Z,100619.13
2023-03-29T19:02:59.934Z,100627.63
2023-03-29T19:05:28.804Z,100630.53
2023-03-29T19:07:56.443Z,100617.84
2023-03-29T19:10:24.728Z,100628.44
2023-03-29T19:12:53.385Z,100635.72
2023-03-29T19:15:21.062Z,100636.16
2023-03-29T19:17:48.682Z,100637.19
2023-03-29T19:20:16.635Z,100637.59
2023-03-29T19:22:44.293Z,100635.12
2023-03-29T19:25:12.144Z,100633.66
2023-03-29T19:27:42.244Z,100635.12
2023-03-29T19:30:11.726Z,100634.28
2023-03-29T19:32:39.424Z,100636.38
2023-03-29T19:35:09.692Z,100638.25
2023-03-29T19:37:37.551Z,100638.47
2023-03-29T19:40:07.132Z,100641.16
2023-03-29T19:42:37.478Z,100633.94
2023-03-29T19:45:10.361Z,100633.72
2023-03-29T19:47:38.072Z,100632.66
2023-03-29T19:50:07.036Z,100629.56
2023-03-29T19:52:34.643Z,100624.78
2023-03-29T19:55:02.342Z,100630.41
2023-03-29T19:57:30.855Z,100623.97
2023-03-29T19:59:58.608Z,100621.28
2023-03-29T20:02:26.458Z,100610.50
2023-03-29T20:04:55.122Z,100611.94
2023-03-29T20:07:22.816Z,100607.78
2023-03-29T20:09:50.466Z,100608.00
2023-03-29T20:12:18.459Z,100608.84
2023-03-29T20:14:46.249Z,100613.19
2023-03-29T20:17:16.626Z,100610.50
2023-03-29T20:19:44.771Z,100613.63
2023-03-29T20:22:15.661Z,100606.56
2023-03-29T20:24:47.317Z,100617.78
2023-03-29T20:27:15.988Z,100611.34
2023-03-29T20:29:43.644Z,100604.31
2023-03-29T20:32:11.359Z,100609.31
2023-03-29T20:34:39.054Z,100611.38
2023-03-29T20:37:06.870Z,100606.03
2023-03-29T20:39:34.689Z,100597.53
2023-03-29T20:42:04.727Z,100598.78
2023-03-29T20:44:35.475Z,100601.06
2023-03-29T20:47:08.747Z,100586.75
2023-03-29T20:49:38.172Z,100586.94
2023-03-29T20:52:06.151Z,100589.03
2023-03-29T20:54:34.325Z,100597.31
2023-03-29T20:57:02.204Z,100603.75
2023-03-29T20:59:30.059Z,100597.94
2023-03-29T21:02:00.200Z,100603.16
2023-03-29T21:04:29.740Z,100598.34
2023-03-29T21:07:02.450Z,100591.31
2023-03-29T21:09:31.306Z,100603.97
2023-03-29T21:11:58.942Z,100597.09
2023-03-29T21:14:30.232Z,100595.22
2023-03-29T21:16:57.877Z,100595.88
2023-03-29T21:19:25.529Z,100599.19
2023-03-29T21:21:55.664Z,100602.94
2023-03-29T21:24:23.660Z,100597.94
2023-03-29T21:26:51.338Z,100591.72
2023-03-29T21:29:18.939Z,100593.56
2023-03-29T21:31:49.151Z,100585.47
2023-03-29T21:34:16.872Z,100589.66
2023-03-29T21:36:44.531Z,100581.97
2023-03-29T21:39:12.188Z,100578.91
2023-03-29T21:41:42.028Z,100586.00
2023-03-29T21:44:10.013Z,100582.87
2023-03-29T21:46:38.193Z,100576.25
2023-03-29T21:49:06.312Z,100581.66
2023-03-29T21:51:35.229Z,100577.72
2023-03-29T21:54:05.421Z,100579.59
2023-03-29T21:56:33.070Z,100579.81
2023-03-29T21:59:00.775Z,100574.00
2023-03-29T22:01:28.551Z,100580.03
2023-03-29T22:03:59.363Z,100576.50
2023-03-29T22:06:29.313Z,100575.47
2023-03-29T22:08:57.040Z,100581.91
2023-03-29T22:11:25.655Z,100583.13
2023-03-29T22:13:56.740Z,100582.50
2023-03-29T22:16:25.922Z,100582.69
2023-03-29T22:18:54.353Z,100579.78
2023-03-29T22:21:28.475Z,100579.37
2023-03-29T22:23:57.634Z,100577.72
2023-03-29T22:26:28.579Z,100570.25
2023-03-29T22:28:57.266Z,100570.22
2023-03-29T22:31:27.084Z,100571.69
2023-03-29T22:33:55.032Z,100569.37
2023-03-29T22:36:28.588Z,100583.88
2023-03-29T22:38:56.741Z,100587.16
2023-03-29T22:41:26.157Z,100572.22
2023-03-29T22:43:57.938Z,100587.94
2023-03-29T22:46:26.386Z,100589.59
2023-03-29T22:48:54.308Z,100591.19
2023-03-29T22:51:22.461Z,100589.13
2023-03-29T22:53:50.186Z,100588.69
2023-03-29T22:56:18.646Z,100592.41
2023-03-29T22:58:46.510Z,100600.63
2023-03-29T23:01:14.468Z,100586.94
2023-03-29T23:03:42.419Z,100593.34
2023-03-29T23:06:10.294Z,100595.19
2023-03-29T23:08:38.117Z,100589.59
2023-03-29T23:11:07.407Z,100589.78
2023-03-29T23:13:35.213Z,100593.50
2023-03-29T23:16:05.426Z,100601.16
2023-03-29T23:18:37.693Z,100589.78
2023-03-29T23:21:08.905Z,100586.25
2023-03-29T23:23:36.908Z,100576.72
2023-03-29T23:26:04.940Z,100568.47
2023-03-29T23:28:34.766Z,100582.56
2023-03-29T23:31:11.741Z,100587.13
2023-03-29T23:33:41.742Z,100579.13
2023-03-29T23:36:15.925Z,100575.63
2023-03-29T23:38:46.161Z,100581.03
2023-03-29T23:41:14.753Z,100587.44
2023-03-29T23:43:47.103Z,100577.72
2023-03-29T23:46:17.746Z,100583.53
2023-03-29T23:48:47.138Z,100580.91
2023-03-29T23:51:15.140Z,100579.66
2023-03-29T23:53:42.743Z,100575.94
2023-03-29T23:56:10.608Z,100556.69
2023-03-29T23:58:39.206Z,100573.88
